createdAt,value
2024-02-14T00:01:10.103Z,60.70
2024-02-14T00:03:39.296Z,60.80
2024-02-14T00:06:08.047Z,60.80
2024-02-14T00:08:36.735Z,61.90
2024-02-14T00:11:04.918Z,62.60
2024-02-14T00:13:35.112Z,62.30
2024-02-14T00:16:03.965Z,61.40
2024-02-14T00:18:33.437Z,62.00
2024-02-14T00:21:01.843Z,62.70
2024-02-14T00:23:30.121Z,62.10
2024-02-14T00:25:58.177Z,62.00
2024-02-14T00:28:27.999Z,61.60
2024-02-14T00:30:56.154Z,61.20
2024-02-14T00:33:24.355Z,61.00
2024-02-14T00:35:54.221Z,60.70
2024-02-14T00:38:22.263Z,60.70
2024-02-14T00:40:50.319Z,61.10
2024-02-14T00:43:18.376Z,60.30
2024-02-14T00:45:46.735Z,60.30
2024-02-14T00:48:14.962Z,60.10
2024-02-14T00:50:44.585Z,59.90
2024-02-14T00:53:14.384Z,60.00
2024-02-14T00:55:42.528Z,60.00
2024-02-14T00:58:10.854Z,59.50
2024-02-14T01:00:39.019Z,59.20
2024-02-14T01:03:09.124Z,58.50
2024-02-14T01:05:37.366Z,58.30
2024-02-14T01:08:05.905Z,58.20
2024-02-14T01:10:35.192Z,57.70
2024-02-14T01:13:03.190Z,57.70
2024-02-14T01:15:31.448Z,57.30
2024-02-14T01:17:59.489Z,57.10
2024-02-14T01:20:27.540Z,57.20
2024-02-14T01:22:55.565Z,57.70
2024-02-14T01:25:23.592Z,57.70
2024-02-14T01:27:53.620Z,57.40
2024-02-14T01:30:21.867Z,57.00
2024-02-14T01:32:49.971Z,57.00
2024-02-14T01:35:18.037Z,57.90
2024-02-14T01:37:46.496Z,56.70
2024-02-14T01:40:15.022Z,56.80
2024-02-14T01:42:43.063Z,56.80
2024-02-14T01:45:13.149Z,57.30
2024-02-14T01:47:42.625Z,56.50
2024-02-14T01:50:12.883Z,56.10
2024-02-14T01:52:42.201Z,56.30
2024-02-14T01:55:10.775Z,56.30
2024-02-14T01:57:39.902Z,56.00
2024-02-14T02:00:10.197Z,55.80
2024-02-14T02:02:42.679Z,55.60
2024-02-14T02:05:17.100Z,55.30
2024-02-14T02:07:46.750Z,55.50
2024-02-14T02:10:14.760Z,55.80
2024-02-14T02:12:42.774Z,55.50
2024-02-14T02:15:14.046Z,54.90
2024-02-14T02:17:46.884Z,55.00
2024-02-14T02:20:16.470Z,55.50
2024-02-14T02:22:49.132Z,55.90
2024-02-14T02:25:17.202Z,55.60
2024-02-14T02:27:45.480Z,55.60
2024-02-14T02:30:14.979Z,55.10
2024-02-14T02:32:44.783Z,54.70
2024-02-14T02:35:12.816Z,55.00
2024-02-14T02:37:40.745Z,54.70
2024-02-14T02:40:11.731Z,54.90
2024-02-14T02:42:39.669Z,54.50
2024-02-14T02:45:08.433Z,54.20
2024-02-14T02:47:36.560Z,54.30
2024-02-14T02:50:04.989Z,53.90
2024-02-14T02:52:33.094Z,53.60
2024-02-14T02:55:01.528Z,54.20
2024-02-14T02:57:33.116Z,53.50
2024-02-14T03:00:01.214Z,53.30
2024-02-14T03:02:29.277Z,53.50
2024-02-14T03:04:58.110Z,53.50
2024-02-14T03:07:26.076Z,53.40
2024-02-14T03:09:54.311Z,53.30
2024-02-14T03:12:24.078Z,52.60
2024-02-14T03:14:53.498Z,52.50
2024-02-14T03:17:21.430Z,52.70
2024-02-14T03:19:52.892Z,52.70
2024-02-14T03:22:20.911Z,52.40
2024-02-14T03:24:49.803Z,52.20
2024-02-14T03:27:18.367Z,52.00
2024-02-14T03:29:48.480Z,52.10
2024-02-14T03:32:18.327Z,52.10
2024-02-14T03:34:46.305Z,52.20
2024-02-14T03:37:14.347Z,52.10
2024-02-14T03:39:42.366Z,52.20
2024-02-14T03:42:10.656Z,52.30
2024-02-14T03:44:39.452Z,52.30
2024-02-14T03:47:07.768Z,52.00
2024-02-14T03:49:37.130Z,51.80
2024-02-14T03:52:10.106Z,51.90
2024-02-14T03:54:38.219Z,51.70
2024-02-14T03:57:09.506Z,51.30
2024-02-14T03:59:41.234Z,51.60
2024-02-14T04:02:10.814Z,51.20
2024-02-14T04:04:40.661Z,51.20
2024-02-14T04:07:09.529Z,50.80
2024-02-14T04:09:37.640Z,51.40
2024-02-14T04:12:06.858Z,51.10
2024-02-14T04:14:34.882Z,51.00
2024-02-14T04:17:03.266Z,50.90
2024-02-14T04:19:31.452Z,51.10
2024-02-14T04:22:00.897Z,51.00
2024-02-14T04:24:28.817Z,51.00
2024-02-14T04:26:58.000Z,51.00
2024-02-14T04:29:26.137Z,51.40
2024-02-14T04:31:54.160Z,51.30
2024-02-14T04:34:22.534Z,51.50
2024-02-14T04:36:50.635Z,51.50
2024-02-14T04:39:20.294Z,51.30
2024-02-14T04:41:56.608Z,51.30
2024-02-14T04:44:29.449Z,51.10
2024-02-14T04:47:00.134Z,50.80
2024-02-14T04:49:29.975Z,50.80
2024-02-14T04:51:58.294Z,51.00
2024-02-14T04:54:28.993Z,51.20
2024-02-14T04:56:59.616Z,51.10
2024-02-14T04:59:30.111Z,50.80
2024-02-14T05:01:58.507Z,51.00
2024-02-14T05:04:26.479Z,50.90
2024-02-14T05:06:58.394Z,50.30
2024-02-14T05:09:28.655Z,50.10
2024-02-14T05:11:56.646Z,50.30
2024-02-14T05:14:24.846Z,50.60
2024-02-14T05:16:53.002Z,50.90
2024-02-14T05:19:23.138Z,51.20
2024-02-14T05:21:51.717Z,51.60
2024-02-14T05:24:20.532Z,51.80
2024-02-14T05:26:50.266Z,52.00
2024-02-14T05:29:19.767Z,52.00
2024-02-14T05:31:49.950Z,51.70
2024-02-14T05:34:18.227Z,51.40
2024-02-14T05:36:47.751Z,51.00
2024-02-14T05:39:16.876Z,51.10
2024-02-14T05:41:45.202Z,51.00
2024-02-14T05:44:14.639Z,50.80
2024-02-14T05:46:42.942Z,50.50
2024-02-14T05:49:11.253Z,50.50
2024-02-14T05:51:39.308Z,50.70
2024-02-14T05:54:07.645Z,50.70
2024-02-14T05:56:35.911Z,50.80
2024-02-14T05:59:03.924Z,50.90
2024-02-14T06:01:33.277Z,51.10
2024-02-14T06:04:01.560Z,51.40
2024-02-14T06:06:29.883Z,51.40
2024-02-14T06:08:59.022Z,51.50
2024-02-14T06:11:27.445Z,51.50
2024-02-14T06:13:55.770Z,52.30
2024-02-14T06:16:23.765Z,51.60
2024-02-14T06:18:53.348Z,51.30
2024-02-14T06:21:21.578Z,50.90
2024-02-14T06:23:49.830Z,51.00
2024-02-14T06:26:18.728Z,50.90
2024-02-14T06:28:47.234Z,50.80
2024-02-14T06:31:15.302Z,50.80
2024-02-14T06:33:45.176Z,50.80
2024-02-14T06:36:14.816Z,50.90
2024-02-14T06:38:42.876Z,50.80
2024-02-14T06:41:10.866Z,50.80
2024-02-14T06:43:40.318Z,50.40
2024-02-14T06:46:08.344Z,50.20
2024-02-14T06:48:36.437Z,50.00
2024-02-14T06:51:04.747Z,49.60
2024-02-14T06:53:34.067Z,49.80
2024-02-14T06:56:03.143Z,49.90
2024-02-14T06:58:31.234Z,50.00
2024-02-14T07:00:59.304Z,50.10
2024-02-14T07:03:27.311Z,50.30
2024-02-14T07:05:55.777Z,50.50
2024-02-14T07:08:25.142Z,50.50
2024-02-14T07:10:54.722Z,50.70
2024-02-14T07:13:22.739Z,50.60
2024-02-14T07:15:51.055Z,50.80
2024-02-14T07:18:19.415Z,51.00
2024-02-14T07:20:47.688Z,51.10
2024-02-14T07:23:15.726Z,51.40
2024-02-14T07:25:44.182Z,51.40
2024-02-14T07:28:13.599Z,51.30
2024-02-14T07:30:41.759Z,51.40
2024-02-14T07:33:10.897Z,51.40
2024-02-14T07:35:39.190Z,51.40
2024-02-14T07:38:07.426Z,51.40
2024-02-14T07:40:35.409Z,51.50
2024-02-14T07:43:03.498Z,51.30
2024-02-14T07:45:32.846Z,51.50
2024-02-14T07:48:00.938Z,52.00
2024-02-14T07:50:29.624Z,52.20
2024-02-14T07:52:57.649Z,52.20
2024-02-14T07:55:25.679Z,52.10
2024-02-14T07:57:54.702Z,52.00
2024-02-14T08:00:24.584Z,51.70
2024-02-14T08:02:54.237Z,51.70
2024-02-14T08:05:22.195Z,51.50
2024-02-14T08:07:50.235Z,51.70
2024-02-14T08:10:18.218Z,51.40
2024-02-14T08:12:46.303Z,51.50
2024-02-14T08:15:14.525Z,51.70
2024-02-14T08:17:46.613Z,51.50
2024-02-14T08:20:17.078Z,51.90
2024-02-14T08:22:45.236Z,52.50
2024-02-14T08:25:14.064Z,52.70
2024-02-14T08:27:42.277Z,53.00
2024-02-14T08:30:11.130Z,52.90
2024-02-14T08:32:39.290Z,53.30
2024-02-14T08:35:08.596Z,53.00
2024-02-14T08:37:39.297Z,53.00
2024-02-14T08:40:08.518Z,53.20
2024-02-14T08:42:36.696Z,53.00
2024-02-14T08:45:04.982Z,52.80
2024-02-14T08:47:33.156Z,53.50
2024-02-14T08:50:01.551Z,53.10
2024-02-14T08:52:29.604Z,53.10
2024-02-14T08:54:59.007Z,53.10
2024-02-14T08:57:27.409Z,53.30
2024-02-14T08:59:56.330Z,53.60
2024-02-14T09:02:26.562Z,53.60
2024-02-14T09:04:54.487Z,53.60
2024-02-14T09:07:22.465Z,53.20
2024-02-14T09:09:50.435Z,52.90
2024-02-14T09:12:19.804Z,53.10
2024-02-14T09:14:47.809Z,52.90
2024-02-14T09:17:16.498Z,53.10
2024-02-14T09:19:44.609Z,53.30
2024-02-14T09:22:12.696Z,53.50
2024-02-14T09:24:40.656Z,53.60
2024-02-14T09:27:08.636Z,53.80
2024-02-14T09:29:39.666Z,54.00
2024-02-14T09:32:08.100Z,53.90
2024-02-14T09:34:36.684Z,54.30
2024-02-14T09:37:06.740Z,54.40
2024-02-14T09:39:38.176Z,54.50
2024-02-14T09:42:11.612Z,54.80
2024-02-14T09:44:42.769Z,55.10
2024-02-14T09:47:11.552Z,55.20
2024-02-14T09:49:40.800Z,55.60
2024-02-14T09:52:10.676Z,55.60
2024-02-14T09:54:40.379Z,55.80
2024-02-14T09:57:09.125Z,56.00
2024-02-14T09:59:37.838Z,55.90
2024-02-14T10:02:08.842Z,56.10
2024-02-14T10:04:37.247Z,56.50
2024-02-14T10:07:06.379Z,56.80
2024-02-14T10:09:43.057Z,56.50
2024-02-14T10:12:11.367Z,56.70
2024-02-14T10:14:39.664Z,56.80
2024-02-14T10:17:10.976Z,56.90
2024-02-14T10:19:38.970Z,56.70
2024-02-14T10:22:08.740Z,56.90
2024-02-14T10:24:36.678Z,57.00
2024-02-14T10:27:09.979Z,56.90
2024-02-14T10:29:38.355Z,57.30
2024-02-14T10:32:07.901Z,57.40
2024-02-14T10:34:41.049Z,57.30
2024-02-14T10:37:10.499Z,57.50
2024-02-14T10:39:40.640Z,57.40
2024-02-14T10:42:08.700Z,57.50
2024-02-14T10:44:38.636Z,57.60
2024-02-14T10:47:12.874Z,57.30
2024-02-14T10:49:43.656Z,57.20
2024-02-14T10:52:12.830Z,57.10
2024-02-14T10:54:42.547Z,57.00
2024-02-14T10:57:13.009Z,57.20
2024-02-14T10:59:46.569Z,57.20
2024-02-14T11:02:16.780Z,57.40
2024-02-14T11:04:45.563Z,57.50
2024-02-14T11:07:14.356Z,57.30
2024-02-14T11:09:42.843Z,57.10
2024-02-14T11:12:12.156Z,57.60
2024-02-14T11:14:41.315Z,57.60
2024-02-14T11:17:11.875Z,58.00
2024-02-14T11:19:42.089Z,57.60
2024-02-14T11:22:15.033Z,56.70
2024-02-14T11:24:43.587Z,57.70
2024-02-14T11:27:29.534Z,57.00
2024-02-14T11:30:04.417Z,56.90
2024-02-14T11:32:34.499Z,56.90
2024-02-14T11:35:07.437Z,57.20
2024-02-14T11:37:35.812Z,56.90
2024-02-14T11:40:04.898Z,56.90
2024-02-14T11:42:32.959Z,56.70
2024-02-14T11:45:00.977Z,56.50
2024-02-14T11:47:29.382Z,56.80
2024-02-14T11:49:59.824Z,56.70
2024-02-14T11:52:31.085Z,56.60
2024-02-14T11:55:00.853Z,57.10
2024-02-14T11:57:28.916Z,56.80
2024-02-14T12:00:00.073Z,56.10
2024-02-14T12:02:28.445Z,55.70
2024-02-14T12:04:57.128Z,55.60
2024-02-14T12:07:26.184Z,55.30
2024-02-14T12:09:57.455Z,55.20
2024-02-14T12:12:25.550Z,54.30
2024-02-14T12:14:54.310Z,54.00
2024-02-14T12:17:23.045Z,53.30
2024-02-14T12:19:53.176Z,53.70
2024-02-14T12:22:22.539Z,54.10
2024-02-14T12:24:50.809Z,53.90
2024-02-14T12:27:21.108Z,53.70
2024-02-14T12:29:50.544Z,54.00
2024-02-14T12:32:19.398Z,54.10
2024-02-14T12:34:47.503Z,54.70
2024-02-14T12:37:16.414Z,53.80
2024-02-14T12:39:44.465Z,53.30
2024-02-14T12:42:12.521Z,54.30
2024-02-14T12:44:41.952Z,53.60
2024-02-14T12:47:10.032Z,53.30
2024-02-14T12:49:38.230Z,52.80
2024-02-14T12:52:06.449Z,52.60
2024-02-14T12:54:35.078Z,52.60
2024-02-14T12:57:03.343Z,52.60
2024-02-14T12:59:31.874Z,52.60
2024-02-14T13:02:01.839Z,53.10
2024-02-14T13:04:29.967Z,52.80
2024-02-14T13:06:58.052Z,52.80
2024-02-14T13:09:26.255Z,53.00
2024-02-14T13:11:54.499Z,52.80
2024-02-14T13:14:22.718Z,53.30
2024-02-14T13:16:51.107Z,52.80
2024-02-14T13:19:20.882Z,52.90
2024-02-14T13:21:49.490Z,52.70
2024-02-14T13:24:18.021Z,53.10
2024-02-14T13:26:46.280Z,53.40
2024-02-14T13:29:14.321Z,53.60
2024-02-14T13:31:43.153Z,53.40
2024-02-14T13:34:12.919Z,52.70
2024-02-14T13:36:42.561Z,52.90
2024-02-14T13:39:10.590Z,52.80
2024-02-14T13:41:39.785Z,53.00
2024-02-14T13:44:09.607Z,54.00
2024-02-14T13:46:38.298Z,54.80
2024-02-14T13:49:06.473Z,54.30
2024-02-14T13:51:34.631Z,53.30
2024-02-14T13:54:04.664Z,52.30
2024-02-14T13:56:32.716Z,52.70
2024-02-14T13:59:01.165Z,53.20
2024-02-14T14:01:29.190Z,52.00
2024-02-14T14:03:59.364Z,51.10
2024-02-14T14:06:27.456Z,51.10
2024-02-14T14:08:55.922Z,51.00
2024-02-14T14:11:25.242Z,50.40
2024-02-14T14:13:53.455Z,51.30
2024-02-14T14:16:22.800Z,51.10
2024-02-14T14:18:54.463Z,51.20
2024-02-14T14:21:23.086Z,51.30
2024-02-14T14:23:51.255Z,51.70
2024-02-14T14:26:19.259Z,52.00
2024-02-14T14:28:48.643Z,52.50
2024-02-14T14:31:16.649Z,52.40
2024-02-14T14:33:44.922Z,52.20
2024-02-14T14:36:13.195Z,51.80
2024-02-14T14:38:41.835Z,52.30
2024-02-14T14:41:11.252Z,52.80
2024-02-14T14:43:40.297Z,52.90
2024-02-14T14:46:09.645Z,53.00
2024-02-14T14:48:38.263Z,53.30
2024-02-14T14:51:06.468Z,53.20
2024-02-14T14:53:36.225Z,53.40
2024-02-14T14:56:04.502Z,53.50
2024-02-14T14:58:35.244Z,53.90
2024-02-14T15:01:05.249Z,54.00
2024-02-14T15:03:34.929Z,54.40
2024-02-14T15:06:03.769Z,54.70
2024-02-14T15:08:32.000Z,54.90
2024-02-14T15:11:00.090Z,55.00
2024-02-14T15:13:28.617Z,55.20
2024-02-14T15:15:58.078Z,55.40
2024-02-14T15:18:26.239Z,55.50
2024-02-14T15:20:55.642Z,56.40
2024-02-14T15:23:23.597Z,56.00
2024-02-14T15:25:51.681Z,56.50
2024-02-14T15:28:26.295Z,56.90
2024-02-14T15:31:11.867Z,57.30
2024-02-14T15:33:40.674Z,57.70
2024-02-14T15:36:11.619Z,57.70
2024-02-14T15:38:39.722Z,57.90
2024-02-14T15:41:08.364Z,57.90
2024-02-14T15:43:36.372Z,58.10
2024-02-14T15:46:04.449Z,58.30
2024-02-14T15:48:34.000Z,58.50
2024-02-14T15:51:02.092Z,58.60
2024-02-14T15:53:32.219Z,58.80
2024-02-14T15:56:01.393Z,58.90
2024-02-14T15:58:30.179Z,59.20
2024-02-14T16:00:58.880Z,59.40
2024-02-14T16:03:27.929Z,59.40
2024-02-14T16:05:56.283Z,59.70
2024-02-14T16:08:26.609Z,59.80
2024-02-14T16:10:58.669Z,60.00
2024-02-14T16:13:27.327Z,60.20
2024-02-14T16:15:55.971Z,60.30
2024-02-14T16:18:24.043Z,60.50
2024-02-14T16:20:52.608Z,60.70
2024-02-14T16:23:20.864Z,60.70
2024-02-14T16:25:50.337Z,60.70
2024-02-14T16:28:19.959Z,60.90
2024-02-14T16:30:48.295Z,61.00
2024-02-14T16:33:16.562Z,61.20
2024-02-14T16:35:44.913Z,61.20
2024-02-14T16:38:13.302Z,61.40
2024-02-14T16:40:41.654Z,61.60
2024-02-14T16:43:10.997Z,61.70
2024-02-14T16:45:40.646Z,61.90
2024-02-14T16:48:10.446Z,62.00
2024-02-14T16:50:38.754Z,62.00
2024-02-14T16:53:06.846Z,62.90
2024-02-14T16:55:34.761Z,62.20
2024-02-14T16:58:03.044Z,62.20
2024-02-14T17:00:31.506Z,62.30
2024-02-14T17:03:08.418Z,62.50
2024-02-14T17:05:43.849Z,62.60
2024-02-14T17:08:12.512Z,62.70
2024-02-14T17:10:40.685Z,62.70
2024-02-14T17:13:09.769Z,62.80
2024-02-14T17:15:37.941Z,62.90
2024-02-14T17:18:10.484Z,63.10
2024-02-14T17:20:38.973Z,63.20
2024-02-14T17:23:07.805Z,63.30
2024-02-14T17:25:38.450Z,63.50
2024-02-14T17:28:06.893Z,63.50
2024-02-14T17:30:34.952Z,63.60
2024-02-14T17:33:03.461Z,63.70
2024-02-14T17:35:32.924Z,63.80
2024-02-14T17:38:01.339Z,63.90
2024-02-14T17:40:29.612Z,64.00
2024-02-14T17:42:57.518Z,63.90
2024-02-14T17:45:25.596Z,64.00
2024-02-14T17:47:53.666Z,64.10
2024-02-14T17:50:23.437Z,64.20
2024-02-14T17:52:52.796Z,64.40
2024-02-14T17:55:20.889Z,64.70
2024-02-14T17:57:49.507Z,64.90
2024-02-14T18:00:18.425Z,64.70
2024-02-14T18:02:46.412Z,64.90
2024-02-14T18:05:14.404Z,64.80
2024-02-14T18:07:42.360Z,64.90
2024-02-14T18:10:12.541Z,64.80
2024-02-14T18:12:40.720Z,64.80
2024-02-14T18:15:10.603Z,64.90
2024-02-14T18:17:38.742Z,65.10
2024-02-14T18:20:08.812Z,65.40
2024-02-14T18:22:36.799Z,65.60
2024-02-14T18:25:05.763Z,65.90
2024-02-14T18:27:35.007Z,66.00
2024-02-14T18:30:04.113Z,66.10
2024-02-14T18:32:32.697Z,66.30
2024-02-14T18:35:01.478Z,66.40
2024-02-14T18:37:29.583Z,66.30
2024-02-14T18:39:58.421Z,66.40
2024-02-14T18:42:27.073Z,66.30
2024-02-14T18:44:56.513Z,66.10
2024-02-14T18:47:24.707Z,66.20
2024-02-14T18:49:52.984Z,66.20
2024-02-14T18:52:21.246Z,66.50
2024-02-14T18:54:49.473Z,66.40
2024-02-14T18:57:17.441Z,66.40
2024-02-14T18:59:45.376Z,66.20
2024-02-14T19:02:14.976Z,65.90
2024-02-14T19:04:43.271Z,65.90
2024-02-14T19:07:12.416Z,65.80
2024-02-14T19:09:41.056Z,65.80
2024-02-14T19:12:09.524Z,66.60
2024-02-14T19:14:39.198Z,65.80
2024-02-14T19:17:07.314Z,65.80
2024-02-14T19:19:37.707Z,65.80
2024-02-14T19:22:07.573Z,66.00
2024-02-14T19:24:35.744Z,66.30
2024-02-14T19:27:03.810Z,66.20
2024-02-14T19:29:31.872Z,66.20
2024-02-14T19:31:59.820Z,66.30
2024-02-14T19:34:28.707Z,66.40
2024-02-14T19:36:58.117Z,66.60
2024-02-14T19:39:26.104Z,66.80
2024-02-14T19:41:54.044Z,66.70
2024-02-14T19:44:21.985Z,66.90
2024-02-14T19:46:51.466Z,67.00
2024-02-14T19:51:49.433Z,67.10
2024-02-14T19:54:18.911Z,66.90
2024-02-14T19:56:47.514Z,66.70
2024-02-14T19:59:15.564Z,66.70
2024-02-14T20:01:43.625Z,66.70
2024-02-14T20:04:12.722Z,66.70
2024-02-14T20:06:40.955Z,66.60
2024-02-14T20:09:10.960Z,66.40
2024-02-14T20:11:40.507Z,66.30
2024-02-14T20:14:09.969Z,66.10
2024-02-14T20:16:38.011Z,65.90
2024-02-14T20:19:06.350Z,65.90
2024-02-14T20:21:34.562Z,65.80
2024-02-14T20:24:03.911Z,65.80
2024-02-14T20:26:35.671Z,65.60
2024-02-14T20:29:06.924Z,65.50
2024-02-14T20:31:36.331Z,65.50
2024-02-14T20:34:05.434Z,65.60
2024-02-14T20:36:34.726Z,65.40
2024-02-14T20:39:03.948Z,65.40
2024-02-14T20:41:32.437Z,65.40
2024-02-14T20:44:00.465Z,65.40
2024-02-14T20:46:30.254Z,65.20
2024-02-14T20:48:58.606Z,65.10
2024-02-14T20:51:29.079Z,65.00
2024-02-14T20:53:57.564Z,64.80
2024-02-14T20:56:25.562Z,64.80
2024-02-14T20:59:01.938Z,64.90
2024-02-14T21:01:35.517Z,64.80
2024-02-14T21:04:03.521Z,64.70
2024-02-14T21:06:31.665Z,64.70
2024-02-14T21:08:59.975Z,64.70
2024-02-14T21:11:28.545Z,64.70
2024-02-14T21:13:56.605Z,64.70
2024-02-14T21:16:25.481Z,64.70
2024-02-14T21:18:55.310Z,64.80
2024-02-14T21:21:23.388Z,64.90
2024-02-14T21:23:51.950Z,64.80
2024-02-14T21:26:19.981Z,64.70
2024-02-14T21:28:48.071Z,64.80
2024-02-14T21:31:16.142Z,65.00
2024-02-14T21:33:45.155Z,65.10
2024-02-14T21:36:15.560Z,65.40
2024-02-14T21:38:43.802Z,65.40
2024-02-14T21:41:11.770Z,65.60
2024-02-14T21:43:39.758Z,65.60
2024-02-14T21:46:07.902Z,65.60
2024-02-14T21:48:36.020Z,65.90
2024-02-14T21:51:05.054Z,65.80
2024-02-14T21:53:34.730Z,65.70
2024-02-14T21:56:02.703Z,65.80
2024-02-14T21:58:30.929Z,66.00
2024-02-14T22:00:58.879Z,66.20
2024-02-14T22:03:29.291Z,66.30
2024-02-14T22:05:57.433Z,66.40
2024-02-14T22:08:25.655Z,66.70
2024-02-14T22:10:56.615Z,66.90
2024-02-14T22:13:24.791Z,66.90
2024-02-14T22:15:52.803Z,66.90
2024-02-14T22:18:21.428Z,67.00
2024-02-14T22:20:50.794Z,67.00
2024-02-14T22:23:19.438Z,67.10
2024-02-14T22:25:47.530Z,67.30
2024-02-14T22:28:16.922Z,67.50
2024-02-14T22:30:44.919Z,67.70
2024-02-14T22:33:13.562Z,67.90
2024-02-14T22:35:43.454Z,67.80
2024-02-14T22:38:11.439Z,68.00
2024-02-14T22:40:39.492Z,68.00
2024-02-14T22:43:09.939Z,68.30
2024-02-14T22:45:41.254Z,68.60
2024-02-14T22:48:10.611Z,69.10
2024-02-14T22:50:38.908Z,69.40
2024-02-14T22:53:07.059Z,69.60
2024-02-14T22:55:35.135Z,69.80
2024-02-14T22:58:04.743Z,70.10
2024-02-14T23:00:34.723Z,70.00
2024-02-14T23:03:07.403Z,70.10
2024-02-14T23:05:36.805Z,70.20
2024-02-14T23:08:05.472Z,70.30
2024-02-14T23:10:33.595Z,70.60
2024-02-14T23:13:01.576Z,70.50
2024-02-14T23:15:29.621Z,70.40
2024-02-14T23:17:57.642Z,70.60
2024-02-14T23:20:27.502Z,70.50
2024-02-14T23:22:55.550Z,70.70
2024-02-14T23:25:23.826Z,70.60
2024-02-14T23:27:52.441Z,70.60
2024-02-14T23:30:20.770Z,70.70
2024-02-14T23:32:50.946Z,70.90
2024-02-14T23:35:19.350Z,71.20
2024-02-14T23:37:49.276Z,72.20
2024-02-14T23:40:17.305Z,71.50
2024-02-14T23:42:46.080Z,71.70
2024-02-14T23:45:16.450Z,71.40
2024-02-14T23:47:44.857Z,71.50
2024-02-14T23:50:13.592Z,71.40
2024-02-14T23:52:42.237Z,71.20
2024-02-14T23:55:11.749Z,71.10
2024-02-14T23:57:39.704Z,71.00
